Time;durP1;ratioP1;P1;durP2;ratioP2;P2;SDS_P1;SDS_P2;PMS_P1;PMS_P2;Temp;Humidity;BMP_temperature;BMP_pressure;BME280_temperature;BME280_humidity;BME280_pressure;Samples;Min_cycle;Max_cycle;Signal;HPM_P1;HPM_P2
2023/01/24 00:00:50;;;;;;;17.42;12.90;;;3.90;99.90;;;;;;5032428;28;20051;-75
2023/01/24 00:03:15;;;;;;;19.35;13.40;;;3.90;99.90;;;;;;5040381;28;20029;-74
2023/01/24 00:05:46;;;;;;;18.30;12.98;;;3.90;99.90;;;;;;5035005;28;20044;-75
2023/01/24 00:08:14;;;;;;;19.45;12.88;;;3.90;99.90;;;;;;5033383;28;20045;-75
2023/01/24 00:10:41;;;;;;;19.20;13.38;;;3.90;99.90;;;;;;5009659;28;20513;-75
2023/01/24 00:13:09;;;;;;;19.40;13.15;;;3.90;99.90;;;;;;5032285;28;20084;-75
2023/01/24 00:15:35;;;;;;;20.85;13.65;;;5.20;99.90;;;;;;5045759;28;20057;-75
2023/01/24 00:18:00;;;;;;;20.95;13.65;;;3.90;99.90;;;;;;5034721;28;20041;-75
2023/01/24 00:20:26;;;;;;;19.92;14.27;;;4.60;99.90;;;;;;5034677;28;20071;-75
2023/01/24 00:22:52;;;;;;;20.73;13.45;;;3.90;99.90;;;;;;5034402;28;20095;-75
2023/01/24 00:25:17;;;;;;;18.90;12.75;;;3.80;99.90;;;;;;5034692;28;20525;-75
2023/01/24 00:27:43;;;;;;;21.20;13.70;;;3.90;99.90;;;;;;5020778;28;20033;-75
2023/01/24 00:30:09;;;;;;;21.17;13.70;;;3.80;99.90;;;;;;4998353;28;20045;-75
2023/01/24 00:32:35;;;;;;;20.02;13.77;;;3.80;99.90;;;;;;5032422;28;20056;-75
2023/01/24 00:35:00;;;;;;;20.92;14.68;;;4.60;99.90;;;;;;4998299;28;20494;-75
2023/01/24 00:37:26;;;;;;;21.25;14.02;;;3.80;99.90;;;;;;5032294;28;20073;-75
2023/01/24 00:39:52;;;;;;;19.48;14.23;;;3.90;99.90;;;;;;5034427;28;20128;-75
2023/01/24 00:42:18;;;;;;;22.65;14.25;;;5.10;99.90;;;;;;5051446;28;20032;-75
2023/01/24 00:44:43;;;;;;;20.73;13.77;;;3.80;99.90;;;;;;5035140;28;20037;-74
2023/01/24 00:47:09;;;;;;;23.83;15.20;;;3.80;99.90;;;;;;5054321;28;20089;-75
2023/01/24 00:49:34;;;;;;;22.38;14.18;;;3.80;99.90;;;;;;5046471;28;20045;-75
2023/01/24 00:52:00;;;;;;;20.58;14.55;;;3.80;99.90;;;;;;5054402;28;20037;-74
2023/01/24 00:54:26;;;;;;;25.08;15.85;;;3.70;99.90;;;;;;5036139;28;20111;-75
2023/01/24 00:56:51;;;;;;;22.10;15.43;;;3.80;99.90;;;;;;5034884;28;20033;-74
2023/01/24 00:59:17;;;;;;;24.17;15.35;;;4.50;99.90;;;;;;5041715;28;20125;-75
2023/01/24 01:01:43;;;;;;;21.80;15.48;;;3.80;99.90;;;;;;5013575;28;20043;-76
2023/01/24 01:04:08;;;;;;;22.42;15.32;;;3.80;99.90;;;;;;5026123;28;20402;-74
2023/01/24 01:06:34;;;;;;;23.13;15.93;;;5.40;99.90;;;;;;5036724;28;20123;-75
2023/01/24 01:09:00;;;;;;;24.98;16.02;;;3.80;99.90;;;;;;5035162;28;20129;-74
2023/01/24 01:11:26;;;;;;;22.45;15.68;;;3.70;99.90;;;;;;5030302;28;20461;-73
2023/01/24 01:13:55;;;;;;;23.30;15.20;;;3.70;99.90;;;;;;5035276;28;20145;-72
2023/01/24 01:16:21;;;;;;;22.13;15.27;;;3.70;99.90;;;;;;5028424;28;20061;-72
2023/01/24 01:18:47;;;;;;;24.67;16.02;;;3.70;99.90;;;;;;5055319;28;20135;-72
2023/01/24 01:21:15;;;;;;;23.50;15.40;;;3.70;99.90;;;;;;5055448;28;20037;-72
2023/01/24 01:23:41;;;;;;;25.80;16.23;;;3.70;99.90;;;;;;5037355;28;20394;-72
2023/01/24 01:26:09;;;;;;;24.83;16.45;;;3.70;99.90;;;;;;5055390;28;20035;-73
2023/01/24 01:28:35;;;;;;;25.80;15.77;;;3.70;99.90;;;;;;5042044;28;20167;-72
2023/01/24 01:31:01;;;;;;;25.20;16.85;;;4.10;99.90;;;;;;5015492;28;20124;-72
2023/01/24 01:33:27;;;;;;;27.83;16.80;;;3.70;99.90;;;;;;5034809;28;20072;-75
2023/01/24 01:35:52;;;;;;;26.42;16.85;;;3.80;99.90;;;;;;5016429;28;20033;-74
2023/01/24 01:38:18;;;;;;;25.75;16.92;;;4.20;99.90;;;;;;5017206;28;20091;-75
2023/01/24 01:40:44;;;;;;;23.73;16.70;;;4.00;99.90;;;;;;5017233;28;20038;-75
2023/01/24 01:43:18;;;;;;;25.88;16.85;;;3.80;99.90;;;;;;5047941;28;21005;-75
2023/01/24 01:45:53;;;;;;;23.83;16.05;;;3.80;99.90;;;;;;5034411;28;20053;-75
2023/01/24 01:48:31;;;;;;;25.30;16.35;;;3.80;99.90;;;;;;5034548;28;20107;-74
2023/01/24 01:51:18;;;;;;;24.92;17.08;;;3.80;99.90;;;;;;5034032;28;20562;-74
2023/01/24 01:54:06;;;;;;;26.38;17.48;;;4.30;99.90;;;;;;5047398;28;20045;-74
2023/01/24 01:56:44;;;;;;;27.98;17.98;;;4.70;99.90;;;;;;5032467;28;20124;-75
2023/01/24 01:59:14;;;;;;;26.40;17.13;;;3.70;99.90;;;;;;5027070;28;20049;-75
2023/01/24 02:01:42;;;;;;;26.25;17.55;;;4.50;99.90;;;;;;5032245;28;20052;-74
2023/01/24 02:04:11;;;;;;;26.88;18.40;;;4.50;99.90;;;;;;5041079;28;20500;-74
2023/01/24 02:06:46;;;;;;;25.95;17.92;;;4.40;99.90;;;;;;5052656;28;20037;-74
2023/01/24 02:09:16;;;;;;;26.02;17.83;;;3.70;99.90;;;;;;5053577;28;20115;-75
2023/01/24 02:11:43;;;;;;;25.50;17.67;;;3.90;99.90;;;;;;5040722;28;20074;-74
2023/01/24 02:16:58;;;;;;;28.73;19.45;;;3.70;99.90;;;;;;5052583;28;20053;-74
2023/01/24 02:19:41;;;;;;;27.20;18.75;;;3.70;99.90;;;;;;5054017;28;20102;-75
2023/01/24 02:22:25;;;;;;;28.52;19.15;;;3.70;99.90;;;;;;5041265;28;20088;-75
2023/01/24 02:25:19;;;;;;;27.77;18.48;;;3.70;99.90;;;;;;5041897;28;20045;-75
2023/01/24 02:27:45;;;;;;;29.33;19.90;;;3.90;99.90;;;;;;5034183;28;20060;-75
2023/01/24 02:30:11;;;;;;;27.42;19.05;;;3.70;99.90;;;;;;5040396;28;20041;-74
2023/01/24 02:32:37;;;;;;;27.90;18.75;;;3.70;99.90;;;;;;5053919;28;20501;-74
2023/01/24 02:35:03;;;;;;;27.40;17.90;;;3.70;99.90;;;;;;5035755;28;20087;-75
2023/01/24 02:37:29;;;;;;;27.77;18.92;;;3.70;99.90;;;;;;5019745;28;20107;-74
2023/01/24 02:40:03;;;;;;;27.30;18.83;;;3.70;99.90;;;;;;5053967;28;20053;-74
2023/01/24 02:42:34;;;;;;;26.98;16.95;;;4.40;99.90;;;;;;5046365;28;20034;-75
2023/01/24 02:45:29;;;;;;;26.25;17.35;;;3.70;99.90;;;;;;5033615;28;20390;-75
2023/01/24 02:47:56;;;;;;;24.83;16.88;;;3.70;99.90;;;;;;5033648;28;20397;-74
2023/01/24 02:50:24;;;;;;;25.15;16.75;;;3.80;99.90;;;;;;5014775;28;20053;-74
2023/01/24 02:58:05;;;;;;;27.15;17.60;;;3.80;99.90;;;;;;5033929;28;20132;-74
2023/01/24 02:58:25;;;;;;;30.33;18.70;;;3.80;99.90;;;;;;5023504;28;20120;-74
2023/01/24 03:00:50;;;;;;;28.42;19.23;;;3.80;99.90;;;;;;5013469;28;20095;-74
2023/01/24 03:03:16;;;;;;;26.33;18.17;;;3.70;99.90;;;;;;5015439;28;20057;-74
2023/01/24 03:05:57;;;;;;;25.98;17.20;;;4.10;99.90;;;;;;5017581;28;20040;-75
2023/01/24 03:08:27;;;;;;;26.02;16.67;;;3.70;99.90;;;;;;5033224;28;20129;-74
2023/01/24 03:10:53;;;;;;;24.98;15.82;;;3.70;99.90;;;;;;5051041;28;20043;-74
2023/01/24 03:35:16;;;;;;;23.33;16.60;;;3.70;99.90;;;;;;5033336;28;20501;-74
2023/01/24 03:40:27;;;;;;;24.33;16.58;;;4.30;99.90;;;;;;5049677;28;20433;-75
2023/01/24 03:42:52;;;;;;;23.17;16.15;;;3.70;99.90;;;;;;5044634;28;20041;-74
2023/01/24 03:45:19;;;;;;;22.88;15.07;;;3.70;99.90;;;;;;5043051;28;20045;-75
2023/01/24 03:47:54;;;;;;;24.70;16.52;;;3.70;99.90;;;;;;5023196;28;20055;-74
2023/01/24 03:53:07;;;;;;;23.15;16.58;;;3.60;99.90;;;;;;5016285;28;20108;-74
2023/01/24 03:55:33;;;;;;;24.05;15.70;;;4.20;99.90;;;;;;5016498;28;20120;-74
2023/01/24 03:57:58;;;;;;;27.30;17.40;;;5.20;99.90;;;;;;5034903;28;20084;-75
2023/01/24 04:00:24;;;;;;;23.85;16.17;;;3.70;99.90;;;;;;5048217;28;20084;-75
2023/01/24 04:02:49;;;;;;;24.42;16.67;;;3.70;99.90;;;;;;5036368;28;20111;-74
2023/01/24 04:05:15;;;;;;;23.88;15.55;;;3.90;99.90;;;;;;5038970;28;20387;-75
2023/01/24 04:07:42;;;;;;;25.40;16.40;;;3.70;99.90;;;;;;5014769;28;20045;-75
2023/01/24 04:10:08;;;;;;;22.92;15.07;;;4.20;99.90;;;;;;5033827;28;20049;-75
2023/01/24 04:12:34;;;;;;;20.20;14.73;;;3.60;99.90;;;;;;5045859;28;20051;-75
2023/01/24 04:15:00;;;;;;;21.45;15.25;;;3.60;99.90;;;;;;5037419;28;20136;-75
2023/01/24 04:17:25;;;;;;;21.92;14.27;;;4.90;99.90;;;;;;5049395;28;20052;-74
2023/01/24 04:19:51;;;;;;;24.17;14.30;;;3.60;99.90;;;;;;5023619;28;20493;-74
2023/01/24 04:22:17;;;;;;;22.27;15.07;;;3.60;99.90;;;;;;5020798;28;20113;-75
2023/01/24 04:24:44;;;;;;;21.33;14.57;;;3.60;99.90;;;;;;5042258;28;20033;-74
2023/01/24 04:27:11;;;;;;;21.42;15.23;;;4.40;99.90;;;;;;5039947;28;20394;-75
2023/01/24 04:29:36;;;;;;;21.17;14.82;;;3.70;99.90;;;;;;5036398;28;20053;-74
2023/01/24 04:32:02;;;;;;;22.08;15.10;;;4.70;99.90;;;;;;5056387;28;20535;-74
2023/01/24 04:34:28;;;;;;;20.00;14.20;;;3.70;99.90;;;;;;5038041;28;20485;-74
2023/01/24 04:36:53;;;;;;;22.02;14.77;;;3.70;99.90;;;;;;5022009;28;20051;-74
2023/01/24 04:39:19;;;;;;;21.67;15.35;;;3.70;99.90;;;;;;5036725;28;20290;-74
2023/01/24 04:41:45;;;;;;;21.42;15.32;;;3.70;99.90;;;;;;5037927;28;20470;-74
2023/01/24 04:44:10;;;;;;;20.38;14.73;;;3.70;99.90;;;;;;5017682;28;20079;-75
2023/01/24 04:46:36;;;;;;;20.23;14.43;;;3.70;99.90;;;;;;5036444;28;20513;-73
2023/01/24 04:49:02;;;;;;;20.58;14.38;;;3.70;99.90;;;;;;5048944;28;20393;-75
2023/01/24 04:51:27;;;;;;;20.52;14.52;;;3.70;99.90;;;;;;5021842;28;20059;-74
2023/01/24 04:53:53;;;;;;;20.02;13.88;;;3.70;99.90;;;;;;5055318;28;20048;-75
2023/01/24 04:56:19;;;;;;;21.38;14.05;;;3.70;99.90;;;;;;5056090;28;20040;-75
2023/01/24 04:58:44;;;;;;;18.45;13.77;;;5.20;99.90;;;;;;5020674;28;20103;-75
2023/01/24 05:01:10;;;;;;;20.60;13.48;;;3.70;99.90;;;;;;5021075;28;20111;-75
2023/01/24 05:03:36;;;;;;;20.70;14.57;;;3.70;99.90;;;;;;5054173;28;20086;-74
2023/01/24 05:06:01;;;;;;;20.02;14.50;;;3.70;99.90;;;;;;5039174;28;20521;-74
2023/01/24 05:08:27;;;;;;;21.08;14.15;;;3.70;99.90;;;;;;5036542;28;20038;-74
2023/01/24 05:10:52;;;;;;;19.38;14.07;;;3.70;99.90;;;;;;5018687;28;20128;-74
2023/01/24 05:13:18;;;;;;;18.77;14.18;;;4.60;99.90;;;;;;5018111;28;20045;-74
2023/01/24 05:15:48;;;;;;;19.50;13.95;;;4.70;99.90;;;;;;5016854;28;20123;-75
2023/01/24 05:18:14;;;;;;;21.83;15.02;;;3.60;99.90;;;;;;5032557;28;20053;-75
2023/01/24 05:20:41;;;;;;;19.85;14.43;;;4.30;99.90;;;;;;5038812;28;20053;-74
2023/01/24 05:23:07;;;;;;;23.02;14.38;;;3.60;99.90;;;;;;5042232;28;20052;-74
2023/01/24 05:25:32;;;;;;;22.08;14.77;;;4.10;99.90;;;;;;5038152;28;20045;-75
2023/01/24 05:27:58;;;;;;;19.20;13.95;;;3.60;99.90;;;;;;5050853;28;20432;-75
2023/01/24 05:30:24;;;;;;;19.05;13.88;;;3.70;99.90;;;;;;5020425;28;20056;-75
2023/01/24 05:32:49;;;;;;;18.05;12.90;;;3.70;99.90;;;;;;5053504;28;20052;-74
2023/01/24 05:35:15;;;;;;;18.42;13.88;;;4.20;99.90;;;;;;5051601;28;20040;-75
2023/01/24 05:37:41;;;;;;;18.40;13.80;;;3.60;99.90;;;;;;5036902;28;20041;-74
2023/01/24 05:40:08;;;;;;;20.98;15.13;;;3.60;99.90;;;;;;5018779;28;20041;-75
2023/01/24 05:42:33;;;;;;;20.42;14.98;;;3.60;99.90;;;;;;5035130;28;20040;-75
2023/01/24 05:44:59;;;;;;;20.23;14.63;;;4.10;99.90;;;;;;5032550;28;20078;-75
2023/01/24 05:47:24;;;;;;;22.02;15.38;;;3.60;99.90;;;;;;5043908;28;20037;-74
2023/01/24 05:49:53;;;;;;;21.55;14.63;;;3.60;99.90;;;;;;5040850;28;20041;-75
2023/01/24 05:52:21;;;;;;;23.33;16.15;;;5.00;99.90;;;;;;5019097;28;20041;-75
2023/01/24 05:54:50;;;;;;;22.33;15.30;;;3.60;99.90;;;;;;5035592;28;20132;-75
2023/01/24 05:57:16;;;;;;;21.98;15.82;;;3.60;99.90;;;;;;5034707;28;20085;-75
2023/01/24 05:59:42;;;;;;;22.38;15.18;;;3.60;99.90;;;;;;5039535;28;20041;-74
2023/01/24 06:02:08;;;;;;;20.98;15.65;;;4.70;99.90;;;;;;5030859;28;20037;-75
2023/01/24 06:04:33;;;;;;;19.40;15.10;;;3.60;99.90;;;;;;5029456;28;20087;-75
2023/01/24 06:06:59;;;;;;;23.42;15.02;;;3.60;99.90;;;;;;5032491;28;20397;-75
2023/01/24 06:09:25;;;;;;;22.65;15.52;;;3.60;99.90;;;;;;5039256;28;20470;-75
2023/01/24 06:11:50;;;;;;;22.95;16.13;;;3.60;99.90;;;;;;5034785;28;20121;-74
2023/01/24 06:14:16;;;;;;;22.95;16.35;;;3.60;99.90;;;;;;5051534;28;20053;-75
2023/01/24 06:16:44;;;;;;;24.55;17.10;;;3.60;99.90;;;;;;5043737;28;20097;-75
2023/01/24 06:19:10;;;;;;;24.25;17.08;;;3.60;99.90;;;;;;5020889;28;20483;-75
2023/01/24 06:21:48;;;;;;;25.85;17.02;;;3.60;99.90;;;;;;5034613;28;20290;-74
2023/01/24 06:24:25;;;;;;;25.13;16.95;;;3.50;99.90;;;;;;5039663;28;20405;-75
2023/01/24 06:26:51;;;;;;;23.70;16.73;;;3.50;99.90;;;;;;5035869;28;20041;-75
2023/01/24 06:29:19;;;;;;;24.27;16.83;;;3.50;99.90;;;;;;5036747;28;20043;-75
2023/01/24 06:31:52;;;;;;;22.75;16.88;;;3.50;99.90;;;;;;5036343;28;20067;-75
2023/01/24 06:34:44;;;;;;;24.88;17.27;;;3.60;99.90;;;;;;5045523;28;20138;-75
2023/01/24 06:37:15;;;;;;;23.33;16.88;;;3.50;99.90;;;;;;5016014;28;20351;-75
2023/01/24 06:39:49;;;;;;;26.05;18.27;;;3.60;99.90;;;;;;5008731;28;20120;-75
2023/01/24 06:42:17;;;;;;;27.13;17.83;;;4.40;99.90;;;;;;5016715;28;20045;-75
2023/01/24 06:44:43;;;;;;;23.80;17.20;;;4.10;99.90;;;;;;5033828;28;20045;-74
2023/01/24 06:47:10;;;;;;;23.20;17.48;;;3.60;99.90;;;;;;5049756;28;20048;-75
2023/01/24 06:49:36;;;;;;;24.65;17.52;;;3.60;99.90;;;;;;5036908;28;20052;-74
2023/01/24 06:52:02;;;;;;;24.75;16.60;;;2.30;99.90;;;;;;5035547;28;20045;-75
2023/01/24 06:54:28;;;;;;;26.27;17.08;;;3.60;99.90;;;;;;5048416;28;20049;-77
2023/01/24 06:56:54;;;;;;;24.50;17.17;;;3.70;99.90;;;;;;5024587;28;20401;-77
2023/01/24 06:59:22;;;;;;;24.20;16.48;;;5.20;99.90;;;;;;5034803;28;20131;-77
2023/01/24 07:01:48;;;;;;;25.38;17.20;;;3.50;99.90;;;;;;5034105;28;20524;-77
2023/01/24 07:04:14;;;;;;;23.38;16.85;;;3.80;99.90;;;;;;5035083;28;20052;-77
2023/01/24 07:06:40;;;;;;;25.23;17.23;;;4.60;99.90;;;;;;5035911;28;20041;-77
2023/01/24 07:09:06;;;;;;;25.98;17.48;;;3.50;99.90;;;;;;5048892;28;20041;-77
2023/01/24 07:11:32;;;;;;;25.90;17.25;;;3.50;99.90;;;;;;5007632;28;20040;-77
2023/01/24 07:13:57;;;;;;;25.95;17.80;;;3.50;99.90;;;;;;5031736;28;20041;-77
2023/01/24 07:16:23;;;;;;;27.08;18.05;;;3.50;99.90;;;;;;4996974;28;20111;-77
2023/01/24 07:18:49;;;;;;;24.63;17.58;;;3.40;99.90;;;;;;5033023;28;20501;-77
2023/01/24 07:21:15;;;;;;;24.15;18.23;;;3.50;99.90;;;;;;4982569;28;20064;-77
2023/01/24 07:23:45;;;;;;;25.33;17.42;;;3.40;99.90;;;;;;5034817;28;20444;-77
2023/01/24 07:26:12;;;;;;;24.50;17.45;;;3.40;99.90;;;;;;5041484;28;20041;-77
2023/01/24 07:28:38;;;;;;;24.45;16.83;;;3.40;99.90;;;;;;5030108;28;20082;-77
2023/01/24 07:31:04;;;;;;;22.85;15.88;;;3.50;99.90;;;;;;5033551;28;20041;-77
2023/01/24 07:33:30;;;;;;;23.20;16.17;;;4.90;99.90;;;;;;5045616;28;20029;-77
2023/01/24 07:35:55;;;;;;;23.75;15.43;;;3.40;99.90;;;;;;5032489;28;20096;-77
2023/01/24 07:38:21;;;;;;;21.70;15.43;;;4.80;99.90;;;;;;5032636;28;20100;-78
2023/01/24 07:40:47;;;;;;;23.38;14.98;;;4.40;99.90;;;;;;5034829;28;20048;-77
2023/01/24 07:43:13;;;;;;;22.17;14.65;;;3.40;99.90;;;;;;5053436;28;20049;-78
2023/01/24 07:45:38;;;;;;;19.95;14.45;;;3.60;99.90;;;;;;5016749;28;20182;-78
2023/01/24 07:48:06;;;;;;;22.58;15.23;;;2.70;99.90;;;;;;5035408;28;20042;-78
2023/01/24 07:50:32;;;;;;;21.00;15.00;;;3.40;99.90;;;;;;5036014;28;20056;-76
2023/01/24 07:52:58;;;;;;;22.95;14.60;;;3.50;99.90;;;;;;5045287;28;20486;-76
2023/01/24 07:55:24;;;;;;;22.02;15.52;;;4.40;99.90;;;;;;5033152;28;20153;-76
2023/01/24 07:57:50;;;;;;;20.45;14.27;;;3.50;99.90;;;;;;5031777;28;20533;-77
2023/01/24 08:00:18;;;;;;;19.90;13.73;;;3.50;99.90;;;;;;5050166;28;20045;-77
2023/01/24 08:02:44;;;;;;;18.48;13.43;;;3.40;99.90;;;;;;5016435;28;20037;-76
2023/01/24 08:05:10;;;;;;;18.25;12.98;;;3.40;99.90;;;;;;5052514;28;20398;-77
2023/01/24 08:07:37;;;;;;;18.98;13.20;;;3.40;99.90;;;;;;5026691;28;20037;-77
2023/01/24 08:10:03;;;;;;;17.35;12.00;;;3.40;99.90;;;;;;5032292;28;20045;-77
2023/01/24 08:12:29;;;;;;;18.52;12.23;;;3.50;99.90;;;;;;5014659;28;20124;-78
2023/01/24 08:14:55;;;;;;;18.80;12.70;;;3.50;99.90;;;;;;5014223;28;20445;-77
2023/01/24 08:17:20;;;;;;;20.73;13.60;;;3.40;99.90;;;;;;5036564;28;20033;-79
2023/01/24 08:19:46;;;;;;;19.05;13.35;;;3.40;99.90;;;;;;5034426;28;20052;-74
2023/01/24 08:22:11;;;;;;;16.73;12.02;;;3.40;99.90;;;;;;5044715;28;20084;-77
2023/01/24 08:24:37;;;;;;;18.58;12.68;;;4.60;99.90;;;;;;5044237;28;20079;-76
2023/01/24 08:27:03;;;;;;;18.33;12.93;;;3.30;99.90;;;;;;5049936;28;20076;-76
2023/01/24 08:29:29;;;;;;;18.95;12.98;;;3.30;99.90;;;;;;5014189;28;20045;-76
2023/01/24 08:31:55;;;;;;;17.63;12.18;;;3.40;99.90;;;;;;5014314;28;20383;-76
2023/01/24 08:34:21;;;;;;;16.52;11.93;;;3.50;99.90;;;;;;5013493;28;20048;-77
2023/01/24 08:36:46;;;;;;;18.80;12.93;;;3.50;99.90;;;;;;5033538;28;20033;-76
2023/01/24 08:39:12;;;;;;;16.98;12.18;;;3.60;99.90;;;;;;5013970;28;20038;-76
2023/01/24 08:41:38;;;;;;;17.27;11.77;;;3.50;99.90;;;;;;5032375;28;20056;-77
2023/01/24 08:44:04;;;;;;;18.63;12.18;;;3.50;99.90;;;;;;5040143;28;20048;-77
2023/01/24 08:46:31;;;;;;;17.58;12.05;;;3.50;99.90;;;;;;5000411;28;20033;-77
2023/01/24 08:48:57;;;;;;;18.30;11.45;;;3.50;99.90;;;;;;5042258;28;20397;-77
2023/01/24 08:51:24;;;;;;;17.10;11.98;;;4.10;99.90;;;;;;5034307;28;20442;-77
2023/01/24 08:53:49;;;;;;;16.80;12.15;;;3.60;99.90;;;;;;5033697;28;20037;-77
2023/01/24 08:56:15;;;;;;;15.55;11.07;;;3.50;99.90;;;;;;5033871;28;20371;-77
2023/01/24 08:58:41;;;;;;;15.00;10.75;;;3.60;99.90;;;;;;5051503;28;20037;-76
2023/01/24 09:01:08;;;;;;;16.15;11.02;;;3.60;99.90;;;;;;5037153;28;20045;-76
2023/01/24 09:03:35;;;;;;;15.68;10.82;;;3.60;99.90;;;;;;5035159;28;20037;-75
2023/01/24 09:06:01;;;;;;;16.77;11.35;;;3.60;99.90;;;;;;5054394;28;20048;-74
2023/01/24 09:08:26;;;;;;;15.35;10.82;;;4.90;99.90;;;;;;5050920;28;20033;-74
2023/01/24 09:10:52;;;;;;;16.80;11.48;;;3.60;99.90;;;;;;5055269;28;20041;-74
2023/01/24 09:13:18;;;;;;;14.60;10.10;;;3.60;99.90;;;;;;5054141;28;20056;-73
2023/01/24 09:15:44;;;;;;;17.85;11.07;;;3.70;99.90;;;;;;5041712;28;20049;-74
2023/01/24 09:18:10;;;;;;;15.95;10.70;;;3.70;99.90;;;;;;5011755;28;20045;-74
2023/01/24 09:20:35;;;;;;;16.55;10.82;;;3.70;99.90;;;;;;5019304;28;20085;-75
2023/01/24 09:23:09;;;;;;;16.10;10.23;;;4.20;99.90;;;;;;5001121;28;20100;-76
2023/01/24 09:25:35;;;;;;;16.23;10.77;;;4.00;99.90;;;;;;5017378;28;20071;-75
2023/01/24 09:28:00;;;;;;;15.55;9.95;;;4.30;99.90;;;;;;5048718;28;20041;-75
2023/01/24 09:30:26;;;;;;;13.73;9.65;;;3.60;99.90;;;;;;5054757;28;20547;-76
2023/01/24 09:32:51;;;;;;;15.23;9.88;;;3.60;99.90;;;;;;5054292;28;20539;-74
2023/01/24 09:35:17;;;;;;;12.88;9.02;;;3.60;99.90;;;;;;5054689;28;20082;-75
2023/01/24 09:37:44;;;;;;;13.98;9.70;;;4.80;99.90;;;;;;5054740;28;20116;-75
2023/01/24 09:40:20;;;;;;;14.60;9.50;;;4.00;99.90;;;;;;5054696;28;20052;-75
2023/01/24 09:43:12;;;;;;;17.13;10.20;;;3.60;99.90;;;;;;5036782;28;20040;-76
2023/01/24 09:46:06;;;;;;;14.43;9.35;;;3.60;99.90;;;;;;5054324;28;20044;-76
2023/01/24 09:48:35;;;;;;;14.88;10.30;;;3.60;99.90;;;;;;5026650;28;20089;-76
2023/01/24 09:51:10;;;;;;;17.20;10.82;;;3.60;99.90;;;;;;5034497;28;20071;-77
2023/01/24 09:53:43;;;;;;;14.20;9.60;;;4.70;99.90;;;;;;5000272;28;20072;-77
2023/01/24 09:56:26;;;;;;;14.57;9.30;;;3.60;99.90;;;;;;5023352;28;20057;-77
2023/01/24 09:59:12;;;;;;;13.48;9.40;;;3.70;99.90;;;;;;5036291;28;20557;-77
2023/01/24 10:01:40;;;;;;;14.23;10.18;;;3.80;99.90;;;;;;5051437;28;20069;-76
2023/01/24 10:04:14;;;;;;;14.10;9.48;;;3.70;99.90;;;;;;5016225;28;20037;-76
2023/01/24 10:06:47;;;;;;;14.93;10.07;;;3.80;99.90;;;;;;5027523;28;20404;-76
2023/01/24 10:09:32;;;;;;;13.75;9.63;;;5.10;99.90;;;;;;5035439;28;20053;-77
2023/01/24 10:12:37;;;;;;;14.90;10.13;;;3.80;99.90;;;;;;5053498;28;20051;-77
2023/01/24 10:15:16;;;;;;;15.65;10.25;;;3.80;99.90;;;;;;5052159;28;20045;-77
2023/01/24 10:17:52;;;;;;;14.50;10.40;;;5.10;99.90;;;;;;5016113;28;20056;-77
2023/01/24 10:20:17;;;;;;;;;;;4.10;99.90;;;;;;5043419;28;20052;-77
2023/01/24 10:22:58;;;;;;;15.83;10.90;;;5.50;99.90;;;;;;5036890;28;19921;-77
2023/01/24 10:25:33;;;;;;;15.27;11.10;;;3.70;99.90;;;;;;5033772;28;20045;-77
2023/01/24 10:28:04;;;;;;;15.82;11.88;;;3.70;99.90;;;;;;5034881;28;20049;-76
2023/01/24 10:30:45;;;;;;;18.02;12.13;;;3.80;99.90;;;;;;5033848;28;20437;-76
2023/01/24 10:33:16;;;;;;;17.58;11.95;;;3.80;99.90;;;;;;5033384;28;20548;-74
2023/01/24 10:35:56;;;;;;;15.95;11.25;;;4.10;99.90;;;;;;4999417;28;20042;-74
2023/01/24 10:38:22;;;;;;;15.10;11.02;;;3.80;99.90;;;;;;5033426;28;20478;-73
2023/01/24 10:40:53;;;;;;;16.27;11.57;;;3.70;99.90;;;;;;5015911;28;20052;-74
2023/01/24 10:43:24;;;;;;;16.05;11.48;;;3.70;99.90;;;;;;5035113;28;20041;-74
2023/01/24 10:46:03;;;;;;;16.75;11.48;;;3.70;99.90;;;;;;5053496;28;20052;-73
2023/01/24 10:48:51;;;;;;;16.10;10.70;;;4.00;99.90;;;;;;5040166;28;20037;-73
2023/01/24 10:51:20;;;;;;;16.30;10.95;;;3.70;99.90;;;;;;5034922;28;20136;-74
2023/01/24 10:53:46;;;;;;;18.00;11.90;;;4.50;99.90;;;;;;5044150;28;20075;-75
2023/01/24 10:56:15;;;;;;;14.50;10.85;;;4.60;99.90;;;;;;5042802;28;20393;-74
2023/01/24 10:58:56;;;;;;;18.08;11.10;;;3.80;99.90;;;;;;5053083;28;20040;-75
2023/01/24 11:01:31;;;;;;;18.45;10.15;;;4.20;99.90;;;;;;5035541;28;20044;-74
2023/01/24 11:03:57;;;;;;;15.40;10.17;;;3.80;99.90;;;;;;5003061;28;20049;-73
2023/01/24 11:06:28;;;;;;;15.82;10.63;;;3.80;99.90;;;;;;5053392;28;20516;-76
2023/01/24 11:09:01;;;;;;;15.45;10.40;;;3.80;99.90;;;;;;5018220;28;20127;-74
2023/01/24 11:11:30;;;;;;;14.35;9.77;;;4.60;99.90;;;;;;5035747;28;20432;-76
2023/01/24 11:13:58;;;;;;;14.77;10.63;;;4.20;99.90;;;;;;5049537;28;20128;-71
2023/01/24 11:16:31;;;;;;;14.52;9.90;;;4.90;99.90;;;;;;5027273;28;20122;-70
2023/01/24 11:18:59;;;;;;;13.88;9.90;;;3.90;99.90;;;;;;5031230;28;20513;-72
2023/01/24 11:21:26;;;;;;;14.95;9.88;;;3.90;99.90;;;;;;5016940;28;20045;-70
2023/01/24 11:24:02;;;;;;;15.20;9.88;;;4.40;99.90;;;;;;5031454;28;20056;-70
2023/01/24 11:26:29;;;;;;;;;;;4.10;99.90;;;;;;5050101;28;20500;-70
2023/01/24 11:29:14;;;;;;;16.70;10.30;;;4.70;99.90;;;;;;5031397;28;19916;-70
2023/01/24 11:31:44;;;;;;;18.52;10.65;;;5.10;99.90;;;;;;5042400;28;20041;-70
2023/01/24 11:34:46;;;;;;;13.90;9.48;;;4.10;99.90;;;;;;5013126;28;20359;-70
2023/01/24 11:37:34;;;;;;;14.32;10.35;;;4.00;99.90;;;;;;5029854;28;20056;-71
2023/01/24 11:40:13;;;;;;;15.30;10.40;;;4.00;99.90;;;;;;5029636;28;20050;-70
2023/01/24 11:42:52;;;;;;;15.50;9.98;;;4.00;99.90;;;;;;5029635;28;20056;-70
2023/01/24 11:45:32;;;;;;;14.65;10.20;;;4.00;99.90;;;;;;5011165;28;20050;-70
2023/01/24 11:48:24;;;;;;;16.02;10.38;;;4.00;99.90;;;;;;5029144;28;20053;-70
2023/01/24 11:51:09;;;;;;;16.38;10.50;;;4.10;99.90;;;;;;5013081;28;20484;-70
2023/01/24 11:54:05;;;;;;;16.10;10.43;;;4.40;99.90;;;;;;5028999;28;20102;-70
2023/01/24 11:56:49;;;;;;;14.77;10.50;;;4.00;99.90;;;;;;5029671;28;20049;-71
2023/01/24 11:59:24;;;;;;;14.07;9.52;;;4.30;99.90;;;;;;5029316;28;20152;-70
2023/01/24 12:01:59;;;;;;;18.67;11.13;;;4.00;99.90;;;;;;5011978;28;20041;-70
2023/01/24 12:04:42;;;;;;;15.70;10.70;;;4.00;99.90;;;;;;5012158;28;20045;-70
2023/01/24 12:07:24;;;;;;;15.57;11.07;;;4.00;99.90;;;;;;5029191;28;20354;-70
2023/01/24 12:10:05;;;;;;;17.90;11.55;;;4.00;99.90;;;;;;5047772;28;20041;-71
2023/01/24 12:12:43;;;;;;;15.23;10.82;;;3.90;99.90;;;;;;5030309;28;20045;-72
2023/01/24 12:15:15;;;;;;;15.48;10.55;;;4.10;99.90;;;;;;5032462;28;20036;-71
2023/01/24 12:18:15;;;;;;;14.85;10.57;;;4.10;99.90;;;;;;5032136;28;20040;-70
2023/01/24 12:21:03;;;;;;;14.73;10.18;;;4.10;99.90;;;;;;5010811;28;20100;-70
2023/01/24 12:23:39;;;;;;;15.13;9.85;;;4.80;99.90;;;;;;5011455;28;20049;-70
2023/01/24 12:26:27;;;;;;;15.88;10.90;;;4.10;99.90;;;;;;4994638;28;20045;-70
2023/01/24 12:29:15;;;;;;;14.75;10.27;;;4.10;99.90;;;;;;5028931;28;20045;-70
2023/01/24 12:32:13;;;;;;;15.68;10.85;;;4.90;99.90;;;;;;5030353;28;20049;-70
2023/01/24 12:35:03;;;;;;;15.45;11.00;;;4.10;99.90;;;;;;5011927;28;20413;-69
2023/01/24 12:37:59;;;;;;;16.50;10.80;;;4.20;99.90;;;;;;5014902;28;20056;-70
2023/01/24 12:40:49;;;;;;;17.13;11.17;;;4.20;99.90;;;;;;5048790;28;20044;-77
2023/01/24 12:43:31;;;;;;;14.57;10.80;;;4.10;99.90;;;;;;5055047;28;20409;-75
2023/01/24 12:46:00;;;;;;;16.60;10.70;;;4.10;99.90;;;;;;5021059;28;20045;-75
2023/01/24 12:48:39;;;;;;;17.08;10.98;;;4.10;99.90;;;;;;5046689;28;20048;-75
2023/01/24 12:51:22;;;;;;;17.05;11.45;;;4.10;99.90;;;;;;5018061;28;20060;-75
2023/01/24 12:54:06;;;;;;;18.13;11.32;;;4.10;99.90;;;;;;5035362;28;20421;-75
2023/01/24 12:57:04;;;;;;;18.40;11.25;;;4.00;99.90;;;;;;5017744;28;20049;-75
2023/01/24 12:59:32;;;;;;;16.08;11.02;;;3.90;99.90;;;;;;5017652;28;20103;-76
2023/01/24 13:02:15;;;;;;;16.20;10.82;;;3.90;99.90;;;;;;5034314;28;20458;-75
2023/01/24 13:05:06;;;;;;;15.52;10.88;;;3.90;99.90;;;;;;5035162;28;20120;-75
2023/01/24 13:07:53;;;;;;;15.60;10.48;;;4.00;99.90;;;;;;5017997;28;20046;-75
2023/01/24 13:10:27;;;;;;;17.45;11.15;;;3.90;99.90;;;;;;5017488;28;20052;-75
2023/01/24 13:12:53;;;;;;;17.02;10.98;;;4.00;99.90;;;;;;5017647;28;20401;-75
2023/01/24 13:15:35;;;;;;;15.20;10.90;;;4.50;99.90;;;;;;5017234;28;20056;-75
2023/01/24 13:18:14;;;;;;;17.48;11.80;;;4.00;99.90;;;;;;5035291;28;20151;-76
2023/01/24 13:21:06;;;;;;;16.80;12.43;;;4.00;99.90;;;;;;5035190;28;20413;-75
2023/01/24 13:24:05;;;;;;;19.83;11.80;;;3.90;99.90;;;;;;5000268;28;20088;-75
2023/01/24 13:26:44;;;;;;;17.58;11.75;;;3.90;99.90;;;;;;5035274;28;20095;-75
2023/01/24 13:29:40;;;;;;;21.25;11.88;;;3.80;99.90;;;;;;5016475;28;20045;-75